Weather at Curry Rivel Airstrip

Public forecast

Using degrees Celsius for public forecast. Weather courtesy of forecast.io.

Closest aviation weather report (METAR) to Curry Rivel Airstrip

Closest report is RNAS Yeovilton, 9.2 nm (17.1 km) E. Retrieved 2021/09/26 23:50 UTC (1 hour ago):

EGDY 262350Z AUTO 18016KT 5000 -RA FEW010/// BKN030/// 17/16 Q1007

Closest aviation forecast (TAF) to Curry Rivel Airstrip

Forecast is more than 12 hours old.

Closest forecast is RNAS Yeovilton, 9.2 nm (17.1 km) E. Retrieved 2020/10/05 06:30 UTC (12 months ago):

TAF TAF EGDY 051025Z 0506/0518 CNL